sensor_id;sensor_type;location;lat;lon;timestamp;temperature;humidity
5806;DHT22;2929;50.810;8.342;2023-06-24T00:02:19;13.70;99.90
5806;DHT22;2929;50.810;8.342;2023-06-24T00:04:49;13.70;99.90
5806;DHT22;2929;50.810;8.342;2023-06-24T00:07:17;13.70;99.90
5806;DHT22;2929;50.810;8.342;2023-06-24T00:09:44;13.60;99.90
5806;DHT22;2929;50.810;8.342;2023-06-24T00:12:12;13.50;99.90
5806;DHT22;2929;50.810;8.342;2023-06-24T00:14:44;13.50;99.90
5806;DHT22;2929;50.810;8.342;2023-06-24T00:17:11;13.40;99.90
5806;DHT22;2929;50.810;8.342;2023-06-24T00:19:40;13.30;99.90
5806;DHT22;2929;50.810;8.342;2023-06-24T00:22:07;13.40;99.90
5806;DHT22;2929;50.810;8.342;2023-06-24T00:24:34;13.30;99.90
5806;DHT22;2929;50.810;8.342;2023-06-24T00:27:01;13.40;99.90
5806;DHT22;2929;50.810;8.342;2023-06-24T00:29:28;13.40;99.90
5806;DHT22;2929;50.810;8.342;2023-06-24T00:31:55;13.30;99.90
5806;DHT22;2929;50.810;8.342;2023-06-24T00:34:25;13.20;99.90
5806;DHT22;2929;50.810;8.342;2023-06-24T00:36:53;13.20;99.90
5806;DHT22;2929;50.810;8.342;2023-06-24T00:39:21;13.10;99.90
5806;DHT22;2929;50.810;8.342;2023-06-24T00:41:48;13.10;99.90
5806;DHT22;2929;50.810;8.342;2023-06-24T00:44:15;13.20;99.90
5806;DHT22;2929;50.810;8.342;2023-06-24T00:46:42;13.30;99.90
5806;DHT22;2929;50.810;8.342;2023-06-24T00:49:10;13.40;99.90
5806;DHT22;2929;50.810;8.342;2023-06-24T00:51:41;13.40;99.90
5806;DHT22;2929;50.810;8.342;2023-06-24T00:54:14;13.50;99.90
5806;DHT22;2929;50.810;8.342;2023-06-24T00:56:41;13.30;99.90
5806;DHT22;2929;50.810;8.342;2023-06-24T00:59:10;13.10;99.90
5806;DHT22;2929;50.810;8.342;2023-06-24T01:01:40;13.10;99.90
5806;DHT22;2929;50.810;8.342;2023-06-24T01:04:07;13.10;99.90
5806;DHT22;2929;50.810;8.342;2023-06-24T01:06:35;13.00;99.90
5806;DHT22;2929;50.810;8.342;2023-06-24T01:09:09;13.20;99.90
5806;DHT22;2929;50.810;8.342;2023-06-24T01:11:38;13.30;99.90
5806;DHT22;2929;50.810;8.342;2023-06-24T01:14:05;13.30;99.90
5806;DHT22;2929;50.810;8.342;2023-06-24T01:16:37;13.30;99.90
5806;DHT22;2929;50.810;8.342;2023-06-24T01:19:33;13.20;99.90
5806;DHT22;2929;50.810;8.342;2023-06-24T01:22:10;13.10;99.90
5806;DHT22;2929;50.810;8.342;2023-06-24T01:25:00;13.00;99.90
5806;DHT22;2929;50.810;8.342;2023-06-24T01:27:55;13.00;99.90
5806;DHT22;2929;50.810;8.342;2023-06-24T01:30:38;13.10;99.90
5806;DHT22;2929;50.810;8.342;2023-06-24T01:33:14;13.20;99.90
5806;DHT22;2929;50.810;8.342;2023-06-24T01:35:47;13.20;99.90
5806;DHT22;2929;50.810;8.342;2023-06-24T01:38:22;13.00;99.90
5806;DHT22;2929;50.810;8.342;2023-06-24T01:40:51;12.90;99.90
5806;DHT22;2929;50.810;8.342;2023-06-24T01:43:21;12.80;99.90
5806;DHT22;2929;50.810;8.342;2023-06-24T01:45:51;12.70;99.90
5806;DHT22;2929;50.810;8.342;2023-06-24T01:48:25;12.70;99.90
5806;DHT22;2929;50.810;8.342;2023-06-24T01:50:58;12.70;99.90
5806;DHT22;2929;50.810;8.342;2023-06-24T01:53:26;12.90;99.90
5806;DHT22;2929;50.810;8.342;2023-06-24T01:55:57;13.00;99.90
5806;DHT22;2929;50.810;8.342;2023-06-24T01:58:26;13.00;99.90
5806;DHT22;2929;50.810;8.342;2023-06-24T02:00:54;13.10;99.90
5806;DHT22;2929;50.810;8.342;2023-06-24T02:03:24;12.90;99.90
5806;DHT22;2929;50.810;8.342;2023-06-24T02:05:53;12.70;99.90
5806;DHT22;2929;50.810;8.342;2023-06-24T02:08:22;12.60;99.90
5806;DHT22;2929;50.810;8.342;2023-06-24T02:10:50;12.50;99.90
5806;DHT22;2929;50.810;8.342;2023-06-24T02:13:19;12.40;99.90
5806;DHT22;2929;50.810;8.342;2023-06-24T02:15:46;12.50;99.90
5806;DHT22;2929;50.810;8.342;2023-06-24T02:18:15;12.50;99.90
5806;DHT22;2929;50.810;8.342;2023-06-24T02:20:45;12.50;99.90
5806;DHT22;2929;50.810;8.342;2023-06-24T02:23:13;12.50;99.90
5806;DHT22;2929;50.810;8.342;2023-06-24T02:25:42;12.30;99.90
5806;DHT22;2929;50.810;8.342;2023-06-24T02:28:09;12.30;99.90
5806;DHT22;2929;50.810;8.342;2023-06-24T02:30:38;12.20;99.90
5806;DHT22;2929;50.810;8.342;2023-06-24T02:33:05;12.20;99.90
5806;DHT22;2929;50.810;8.342;2023-06-24T02:35:33;12.20;99.90
5806;DHT22;2929;50.810;8.342;2023-06-24T02:38:01;12.10;99.90
5806;DHT22;2929;50.810;8.342;2023-06-24T02:40:29;12.10;99.90
5806;DHT22;2929;50.810;8.342;2023-06-24T02:42:58;12.10;99.90
5806;DHT22;2929;50.810;8.342;2023-06-24T02:45:25;12.00;99.90
5806;DHT22;2929;50.810;8.342;2023-06-24T02:47:53;12.00;99.90
5806;DHT22;2929;50.810;8.342;2023-06-24T02:50:22;11.90;99.90
5806;DHT22;2929;50.810;8.342;2023-06-24T02:52:50;11.80;99.90
5806;DHT22;2929;50.810;8.342;2023-06-24T02:55:21;11.90;99.90
5806;DHT22;2929;50.810;8.342;2023-06-24T02:57:53;11.90;99.90
5806;DHT22;2929;50.810;8.342;2023-06-24T03:00:49;11.90;99.90
5806;DHT22;2929;50.810;8.342;2023-06-24T03:03:31;11.90;99.90
5806;DHT22;2929;50.810;8.342;2023-06-24T03:05:59;11.90;99.90
5806;DHT22;2929;50.810;8.342;2023-06-24T03:08:29;11.90;99.90
5806;DHT22;2929;50.810;8.342;2023-06-24T03:10:58;11.90;99.90
5806;DHT22;2929;50.810;8.342;2023-06-24T03:13:28;11.90;99.90
5806;DHT22;2929;50.810;8.342;2023-06-24T03:16:15;12.00;99.90
5806;DHT22;2929;50.810;8.342;2023-06-24T03:18:52;11.90;99.90
5806;DHT22;2929;50.810;8.342;2023-06-24T03:21:19;11.90;99.90
5806;DHT22;2929;50.810;8.342;2023-06-24T03:23:48;11.80;99.90
5806;DHT22;2929;50.810;8.342;2023-06-24T03:26:17;11.90;99.90
5806;DHT22;2929;50.810;8.342;2023-06-24T03:28:44;11.80;99.90
5806;DHT22;2929;50.810;8.342;2023-06-24T03:31:15;11.60;99.90
5806;DHT22;2929;50.810;8.342;2023-06-24T03:33:42;11.60;99.90
5806;DHT22;2929;50.810;8.342;2023-06-24T03:36:11;11.60;99.90
5806;DHT22;2929;50.810;8.342;2023-06-24T03:38:38;11.70;99.90
5806;DHT22;2929;50.810;8.342;2023-06-24T03:41:06;11.60;99.90
5806;DHT22;2929;50.810;8.342;2023-06-24T03:43:34;11.60;99.90
5806;DHT22;2929;50.810;8.342;2023-06-24T03:46:01;11.60;99.90
5806;DHT22;2929;50.810;8.342;2023-06-24T03:48:28;11.70;99.90
5806;DHT22;2929;50.810;8.342;2023-06-24T03:50:56;11.70;99.90
5806;DHT22;2929;50.810;8.342;2023-06-24T03:53:23;11.70;99.90
5806;DHT22;2929;50.810;8.342;2023-06-24T03:55:50;11.70;99.90
5806;DHT22;2929;50.810;8.342;2023-06-24T03:58:17;11.60;99.90
5806;DHT22;2929;50.810;8.342;2023-06-24T04:00:48;11.60;99.90
5806;DHT22;2929;50.810;8.342;2023-06-24T04:03:15;11.60;99.90
5806;DHT22;2929;50.810;8.342;2023-06-24T04:05:43;11.80;99.90
5806;DHT22;2929;50.810;8.342;2023-06-24T04:08:10;11.90;99.90
5806;DHT22;2929;50.810;8.342;2023-06-24T04:10:38;12.00;99.90
5806;DHT22;2929;50.810;8.342;2023-06-24T04:13:05;12.00;99.90
5806;DHT22;2929;50.810;8.342;2023-06-24T04:15:32;12.00;99.90
5806;DHT22;2929;50.810;8.342;2023-06-24T04:18:00;12.00;99.90
5806;DHT22;2929;50.810;8.342;2023-06-24T04:20:28;12.10;99.90
5806;DHT22;2929;50.810;8.342;2023-06-24T04:22:54;12.10;99.90
5806;DHT22;2929;50.810;8.342;2023-06-24T04:25:21;12.20;99.90
5806;DHT22;2929;50.810;8.342;2023-06-24T04:27:48;12.30;99.90
5806;DHT22;2929;50.810;8.342;2023-06-24T04:30:16;12.50;99.90
5806;DHT22;2929;50.810;8.342;2023-06-24T04:32:43;12.50;99.90
5806;DHT22;2929;50.810;8.342;2023-06-24T04:35:12;12.60;99.90
5806;DHT22;2929;50.810;8.342;2023-06-24T04:37:39;12.60;99.90
5806;DHT22;2929;50.810;8.342;2023-06-24T04:40:07;12.60;99.90
5806;DHT22;2929;50.810;8.342;2023-06-24T04:42:34;12.70;99.90
5806;DHT22;2929;50.810;8.342;2023-06-24T04:45:01;12.80;99.90
5806;DHT22;2929;50.810;8.342;2023-06-24T04:47:30;12.70;99.90
5806;DHT22;2929;50.810;8.342;2023-06-24T04:49:57;12.60;99.90
5806;DHT22;2929;50.810;8.342;2023-06-24T04:52:28;12.60;99.90
5806;DHT22;2929;50.810;8.342;2023-06-24T04:55:08;12.70;99.90
5806;DHT22;2929;50.810;8.342;2023-06-24T04:57:52;12.70;99.90
5806;DHT22;2929;50.810;8.342;2023-06-24T05:00:20;12.80;99.90
5806;DHT22;2929;50.810;8.342;2023-06-24T05:02:49;12.90;99.90
5806;DHT22;2929;50.810;8.342;2023-06-24T05:05:16;13.00;99.90
5806;DHT22;2929;50.810;8.342;2023-06-24T05:07:44;13.10;99.90
5806;DHT22;2929;50.810;8.342;2023-06-24T05:10:11;13.10;99.90
5806;DHT22;2929;50.810;8.342;2023-06-24T05:12:38;13.10;99.90
5806;DHT22;2929;50.810;8.342;2023-06-24T05:15:05;13.20;99.90
5806;DHT22;2929;50.810;8.342;2023-06-24T05:17:33;13.30;99.90
5806;DHT22;2929;50.810;8.342;2023-06-24T05:19:59;13.40;99.90
5806;DHT22;2929;50.810;8.342;2023-06-24T05:22:26;13.50;99.90
5806;DHT22;2929;50.810;8.342;2023-06-24T05:24:55;13.60;99.90
5806;DHT22;2929;50.810;8.342;2023-06-24T05:27:22;13.70;99.90
5806;DHT22;2929;50.810;8.342;2023-06-24T05:29:48;13.80;99.90
5806;DHT22;2929;50.810;8.342;2023-06-24T05:32:15;13.90;99.90
5806;DHT22;2929;50.810;8.342;2023-06-24T05:34:45;14.00;99.90
5806;DHT22;2929;50.810;8.342;2023-06-24T05:37:12;14.10;99.90
5806;DHT22;2929;50.810;8.342;2023-06-24T05:39:39;14.20;99.90
5806;DHT22;2929;50.810;8.342;2023-06-24T05:42:08;14.20;99.90
5806;DHT22;2929;50.810;8.342;2023-06-24T05:44:34;14.30;99.90
5806;DHT22;2929;50.810;8.342;2023-06-24T05:47:01;14.40;99.90
5806;DHT22;2929;50.810;8.342;2023-06-24T05:49:28;14.50;99.90
5806;DHT22;2929;50.810;8.342;2023-06-24T05:51:56;14.60;99.90
5806;DHT22;2929;50.810;8.342;2023-06-24T05:54:24;14.60;99.90
5806;DHT22;2929;50.810;8.342;2023-06-24T05:56:51;14.70;99.90
5806;DHT22;2929;50.810;8.342;2023-06-24T05:59:19;14.80;99.90
5806;DHT22;2929;50.810;8.342;2023-06-24T06:01:46;14.90;99.90
5806;DHT22;2929;50.810;8.342;2023-06-24T06:04:13;15.00;99.90
5806;DHT22;2929;50.810;8.342;2023-06-24T06:06:40;15.10;99.90
5806;DHT22;2929;50.810;8.342;2023-06-24T06:09:07;15.20;99.90
5806;DHT22;2929;50.810;8.342;2023-06-24T06:11:34;15.30;99.90
5806;DHT22;2929;50.810;8.342;2023-06-24T06:14:01;15.40;99.90
5806;DHT22;2929;50.810;8.342;2023-06-24T06:16:30;15.40;99.90
5806;DHT22;2929;50.810;8.342;2023-06-24T06:18:57;15.50;99.90
5806;DHT22;2929;50.810;8.342;2023-06-24T06:21:24;15.60;99.90
5806;DHT22;2929;50.810;8.342;2023-06-24T06:23:51;15.70;99.90
5806;DHT22;2929;50.810;8.342;2023-06-24T06:26:18;15.90;99.90
5806;DHT22;2929;50.810;8.342;2023-06-24T06:28:45;16.00;99.90
5806;DHT22;2929;50.810;8.342;2023-06-24T06:31:13;16.00;99.90
5806;DHT22;2929;50.810;8.342;2023-06-24T06:33:42;16.10;99.90
5806;DHT22;2929;50.810;8.342;2023-06-24T06:36:08;16.30;99.90
5806;DHT22;2929;50.810;8.342;2023-06-24T06:38:35;16.40;99.90
5806;DHT22;2929;50.810;8.342;2023-06-24T06:41:02;16.40;99.90
5806;DHT22;2929;50.810;8.342;2023-06-24T06:43:29;16.60;99.90
5806;DHT22;2929;50.810;8.342;2023-06-24T06:45:56;16.70;99.90
5806;DHT22;2929;50.810;8.342;2023-06-24T06:48:23;16.80;99.90
5806;DHT22;2929;50.810;8.342;2023-06-24T06:50:51;16.90;99.90
5806;DHT22;2929;50.810;8.342;2023-06-24T06:53:19;17.10;99.90
5806;DHT22;2929;50.810;8.342;2023-06-24T06:55:46;17.20;99.90
5806;DHT22;2929;50.810;8.342;2023-06-24T06:58:13;17.30;99.90
5806;DHT22;2929;50.810;8.342;2023-06-24T07:00:39;17.40;99.90
5806;DHT22;2929;50.810;8.342;2023-06-24T07:03:06;17.50;99.90
5806;DHT22;2929;50.810;8.342;2023-06-24T07:05:33;17.50;99.90
5806;DHT22;2929;50.810;8.342;2023-06-24T07:08:02;17.50;99.90
5806;DHT22;2929;50.810;8.342;2023-06-24T07:10:29;17.80;99.90
5806;DHT22;2929;50.810;8.342;2023-06-24T07:12:56;17.90;99.90
5806;DHT22;2929;50.810;8.342;2023-06-24T07:15:24;18.00;99.90
5806;DHT22;2929;50.810;8.342;2023-06-24T07:17:51;18.00;99.90
5806;DHT22;2929;50.810;8.342;2023-06-24T07:20:19;18.20;99.90
5806;DHT22;2929;50.810;8.342;2023-06-24T07:22:45;18.40;99.90
5806;DHT22;2929;50.810;8.342;2023-06-24T07:25:14;18.50;99.90
5806;DHT22;2929;50.810;8.342;2023-06-24T07:27:42;18.50;99.90
5806;DHT22;2929;50.810;8.342;2023-06-24T07:30:09;18.60;99.90
5806;DHT22;2929;50.810;8.342;2023-06-24T07:32:36;18.70;99.90
5806;DHT22;2929;50.810;8.342;2023-06-24T07:35:03;18.90;99.90
5806;DHT22;2929;50.810;8.342;2023-06-24T07:37:30;19.10;99.90
5806;DHT22;2929;50.810;8.342;2023-06-24T07:39:57;19.20;99.90
5806;DHT22;2929;50.810;8.342;2023-06-24T07:42:25;19.40;99.90
5806;DHT22;2929;50.810;8.342;2023-06-24T07:44:52;19.40;99.90
5806;DHT22;2929;50.810;8.342;2023-06-24T07:47:19;19.50;99.90
5806;DHT22;2929;50.810;8.342;2023-06-24T07:49:46;19.60;99.90
5806;DHT22;2929;50.810;8.342;2023-06-24T07:52:13;19.70;99.90
5806;DHT22;2929;50.810;8.342;2023-06-24T07:54:41;19.70;99.90
5806;DHT22;2929;50.810;8.342;2023-06-24T07:57:08;19.70;99.90
5806;DHT22;2929;50.810;8.342;2023-06-24T07:59:36;19.80;99.90
5806;DHT22;2929;50.810;8.342;2023-06-24T08:02:03;19.90;99.90
5806;DHT22;2929;50.810;8.342;2023-06-24T08:04:30;20.00;99.90
5806;DHT22;2929;50.810;8.342;2023-06-24T08:06:57;20.20;99.90
5806;DHT22;2929;50.810;8.342;2023-06-24T08:09:24;20.30;99.90
5806;DHT22;2929;50.810;8.342;2023-06-24T08:11:51;20.30;99.90
5806;DHT22;2929;50.810;8.342;2023-06-24T08:14:18;20.50;99.90
5806;DHT22;2929;50.810;8.342;2023-06-24T08:16:46;20.40;99.90
5806;DHT22;2929;50.810;8.342;2023-06-24T08:19:13;20.60;99.90
5806;DHT22;2929;50.810;8.342;2023-06-24T08:21:40;20.70;99.90
5806;DHT22;2929;50.810;8.342;2023-06-24T08:24:07;20.80;99.90
5806;DHT22;2929;50.810;8.342;2023-06-24T08:26:34;20.80;99.90
5806;DHT22;2929;50.810;8.342;2023-06-24T08:29:01;21.00;99.90
5806;DHT22;2929;50.810;8.342;2023-06-24T08:31:28;21.10;99.90
5806;DHT22;2929;50.810;8.342;2023-06-24T08:33:59;21.20;99.90
5806;DHT22;2929;50.810;8.342;2023-06-24T08:36:28;21.20;99.90
5806;DHT22;2929;50.810;8.342;2023-06-24T08:38:55;21.30;99.90
5806;DHT22;2929;50.810;8.342;2023-06-24T08:41:23;21.60;99.90
5806;DHT22;2929;50.810;8.342;2023-06-24T08:43:52;21.60;99.90
5806;DHT22;2929;50.810;8.342;2023-06-24T08:46:24;21.70;99.90
5806;DHT22;2929;50.810;8.342;2023-06-24T08:48:58;22.00;99.90
5806;DHT22;2929;50.810;8.342;2023-06-24T08:51:28;22.10;99.90
5806;DHT22;2929;50.810;8.342;2023-06-24T08:53:57;22.10;99.90
5806;DHT22;2929;50.810;8.342;2023-06-24T08:56:25;22.10;99.90
5806;DHT22;2929;50.810;8.342;2023-06-24T08:58:52;22.20;99.90
5806;DHT22;2929;50.810;8.342;2023-06-24T09:01:19;22.30;99.90
5806;DHT22;2929;50.810;8.342;2023-06-24T09:03:48;22.40;99.90
5806;DHT22;2929;50.810;8.342;2023-06-24T09:06:17;22.60;99.90
5806;DHT22;2929;50.810;8.342;2023-06-24T09:08:52;22.70;99.90
5806;DHT22;2929;50.810;8.342;2023-06-24T09:11:22;22.60;99.90
5806;DHT22;2929;50.810;8.342;2023-06-24T09:13:55;22.80;99.90
5806;DHT22;2929;50.810;8.342;2023-06-24T09:16:23;22.90;99.90
5806;DHT22;2929;50.810;8.342;2023-06-24T09:18:53;23.00;99.90
5806;DHT22;2929;50.810;8.342;2023-06-24T09:21:23;22.80;99.90
5806;DHT22;2929;50.810;8.342;2023-06-24T09:23:55;22.70;99.90
5806;DHT22;2929;50.810;8.342;2023-06-24T09:26:23;22.90;99.90
5806;DHT22;2929;50.810;8.342;2023-06-24T09:28:51;23.00;99.90
5806;DHT22;2929;50.810;8.342;2023-06-24T09:31:18;23.00;99.90
5806;DHT22;2929;50.810;8.342;2023-06-24T09:33:46;23.20;99.90
5806;DHT22;2929;50.810;8.342;2023-06-24T09:36:14;23.30;99.90
5806;DHT22;2929;50.810;8.342;2023-06-24T09:38:43;23.50;99.90
5806;DHT22;2929;50.810;8.342;2023-06-24T09:41:11;23.50;99.90
5806;DHT22;2929;50.810;8.342;2023-06-24T09:43:38;23.20;99.90
5806;DHT22;2929;50.810;8.342;2023-06-24T09:46:06;22.80;99.90
5806;DHT22;2929;50.810;8.342;2023-06-24T09:48:34;22.80;99.90
5806;DHT22;2929;50.810;8.342;2023-06-24T09:51:02;22.70;99.90
5806;DHT22;2929;50.810;8.342;2023-06-24T09:53:30;22.80;99.90
5806;DHT22;2929;50.810;8.342;2023-06-24T09:56:01;22.80;99.90
5806;DHT22;2929;50.810;8.342;2023-06-24T09:58:31;22.70;99.90
5806;DHT22;2929;50.810;8.342;2023-06-24T10:01:02;22.60;99.90
5806;DHT22;2929;50.810;8.342;2023-06-24T10:03:30;22.70;99.90
5806;DHT22;2929;50.810;8.342;2023-06-24T10:06:01;22.90;99.90
5806;DHT22;2929;50.810;8.342;2023-06-24T10:08:31;23.50;99.90
5806;DHT22;2929;50.810;8.342;2023-06-24T10:11:00;23.80;99.90
5806;DHT22;2929;50.810;8.342;2023-06-24T10:13:28;23.80;99.90
5806;DHT22;2929;50.810;8.342;2023-06-24T10:15:56;24.10;99.90
5806;DHT22;2929;50.810;8.342;2023-06-24T10:18:34;24.20;99.90
5806;DHT22;2929;50.810;8.342;2023-06-24T10:21:02;24.40;99.90
5806;DHT22;2929;50.810;8.342;2023-06-24T10:23:38;24.30;99.90
5806;DHT22;2929;50.810;8.342;2023-06-24T10:26:09;24.60;99.90
5806;DHT22;2929;50.810;8.342;2023-06-24T10:29:09;24.60;99.90
5806;DHT22;2929;50.810;8.342;2023-06-24T10:31:52;24.40;99.90
5806;DHT22;2929;50.810;8.342;2023-06-24T10:34:33;24.10;99.90
5806;DHT22;2929;50.810;8.342;2023-06-24T10:37:02;23.70;99.90
5806;DHT22;2929;50.810;8.342;2023-06-24T10:39:39;23.60;99.90
5806;DHT22;2929;50.810;8.342;2023-06-24T10:42:36;23.80;99.90
5806;DHT22;2929;50.810;8.342;2023-06-24T10:45:19;24.20;99.90
5806;DHT22;2929;50.810;8.342;2023-06-24T10:47:48;24.70;99.90
5806;DHT22;2929;50.810;8.342;2023-06-24T10:50:18;24.90;99.90
5806;DHT22;2929;50.810;8.342;2023-06-24T10:52:46;25.10;98.70
5806;DHT22;2929;50.810;8.342;2023-06-24T10:55:15;25.10;97.50
5806;DHT22;2929;50.810;8.342;2023-06-24T10:57:44;25.50;99.40
5806;DHT22;2929;50.810;8.342;2023-06-24T11:00:12;25.60;98.10
5806;DHT22;2929;50.810;8.342;2023-06-24T11:02:40;25.60;97.30
5806;DHT22;2929;50.810;8.342;2023-06-24T11:05:07;26.10;99.00
5806;DHT22;2929;50.810;8.342;2023-06-24T11:07:35;26.20;98.50
5806;DHT22;2929;50.810;8.342;2023-06-24T11:10:03;26.50;97.70
5806;DHT22;2929;50.810;8.342;2023-06-24T11:12:33;26.40;97.90
5806;DHT22;2929;50.810;8.342;2023-06-24T11:15:04;26.30;97.10
5806;DHT22;2929;50.810;8.342;2023-06-24T11:17:33;26.50;96.60
5806;DHT22;2929;50.810;8.342;2023-06-24T11:20:00;26.60;95.20
5806;DHT22;2929;50.810;8.342;2023-06-24T11:22:28;26.80;96.60
5806;DHT22;2929;50.810;8.342;2023-06-24T11:24:55;26.40;93.70
5806;DHT22;2929;50.810;8.342;2023-06-24T11:27:26;25.90;95.50
5806;DHT22;2929;50.810;8.342;2023-06-24T11:29:53;26.40;95.70
5806;DHT22;2929;50.810;8.342;2023-06-24T11:32:22;26.70;95.50
5806;DHT22;2929;50.810;8.342;2023-06-24T11:34:49;27.00;93.70
5806;DHT22;2929;50.810;8.342;2023-06-24T11:37:17;26.50;94.00
5806;DHT22;2929;50.810;8.342;2023-06-24T11:39:55;26.20;94.50
5806;DHT22;2929;50.810;8.342;2023-06-24T11:42:28;25.60;94.60
5806;DHT22;2929;50.810;8.342;2023-06-24T11:44:59;25.30;97.90
5806;DHT22;2929;50.810;8.342;2023-06-24T11:47:31;25.00;98.80
5806;DHT22;2929;50.810;8.342;2023-06-24T11:49:58;24.60;99.00
5806;DHT22;2929;50.810;8.342;2023-06-24T11:52:39;24.50;99.70
5806;DHT22;2929;50.810;8.342;2023-06-24T11:55:12;24.40;99.90
5806;DHT22;2929;50.810;8.342;2023-06-24T11:57:50;24.50;99.90
5806;DHT22;2929;50.810;8.342;2023-06-24T12:00:20;25.10;99.30
5806;DHT22;2929;50.810;8.342;2023-06-24T12:02:52;26.10;98.80
5806;DHT22;2929;50.810;8.342;2023-06-24T12:05:27;26.50;94.10
5806;DHT22;2929;50.810;8.342;2023-06-24T12:07:56;26.70;93.10
5806;DHT22;2929;50.810;8.342;2023-06-24T12:10:23;26.80;93.40
5806;DHT22;2929;50.810;8.342;2023-06-24T12:12:50;26.50;94.20
5806;DHT22;2929;50.810;8.342;2023-06-24T12:15:24;26.30;94.30
5806;DHT22;2929;50.810;8.342;2023-06-24T12:17:52;26.40;92.80
5806;DHT22;2929;50.810;8.342;2023-06-24T12:20:19;26.10;94.60
5806;DHT22;2929;50.810;8.342;2023-06-24T12:22:47;25.90;92.40
5806;DHT22;2929;50.810;8.342;2023-06-24T12:25:15;26.60;92.90
5806;DHT22;2929;50.810;8.342;2023-06-24T12:27:42;27.50;90.70
5806;DHT22;2929;50.810;8.342;2023-06-24T12:30:10;28.20;91.40
5806;DHT22;2929;50.810;8.342;2023-06-24T12:32:38;28.90;88.40
5806;DHT22;2929;50.810;8.342;2023-06-24T12:35:07;28.50;83.90
5806;DHT22;2929;50.810;8.342;2023-06-24T12:37:35;29.20;86.10
5806;DHT22;2929;50.810;8.342;2023-06-24T12:40:02;29.00;80.90
5806;DHT22;2929;50.810;8.342;2023-06-24T12:42:29;29.40;86.10
5806;DHT22;2929;50.810;8.342;2023-06-24T12:44:56;29.40;81.10
5806;DHT22;2929;50.810;8.342;2023-06-24T12:47:24;29.50;83.70
5806;DHT22;2929;50.810;8.342;2023-06-24T12:49:51;29.80;79.30
5806;DHT22;2929;50.810;8.342;2023-06-24T12:52:20;30.20;78.40
5806;DHT22;2929;50.810;8.342;2023-06-24T12:54:47;29.80;76.30
5806;DHT22;2929;50.810;8.342;2023-06-24T12:57:14;30.20;73.60
5806;DHT22;2929;50.810;8.342;2023-06-24T12:59:41;30.40;70.40
5806;DHT22;2929;50.810;8.342;2023-06-24T13:02:08;30.80;72.40
5806;DHT22;2929;50.810;8.342;2023-06-24T13:04:35;30.60;70.60
5806;DHT22;2929;50.810;8.342;2023-06-24T13:07:02;31.20;73.10
5806;DHT22;2929;50.810;8.342;2023-06-24T13:09:30;30.50;74.60
5806;DHT22;2929;50.810;8.342;2023-06-24T13:11:57;30.10;73.60
5806;DHT22;2929;50.810;8.342;2023-06-24T13:14:24;29.50;74.20
5806;DHT22;2929;50.810;8.342;2023-06-24T13:16:53;28.80;76.90
5806;DHT22;2929;50.810;8.342;2023-06-24T13:19:20;28.30;77.50
5806;DHT22;2929;50.810;8.342;2023-06-24T13:21:47;28.80;78.80
5806;DHT22;2929;50.810;8.342;2023-06-24T13:24:15;29.00;80.40
5806;DHT22;2929;50.810;8.342;2023-06-24T13:26:43;29.30;82.20
5806;DHT22;2929;50.810;8.342;2023-06-24T13:29:10;29.40;78.80
5806;DHT22;2929;50.810;8.342;2023-06-24T13:31:39;29.50;85.20
5806;DHT22;2929;50.810;8.342;2023-06-24T13:34:06;29.50;77.90
5806;DHT22;2929;50.810;8.342;2023-06-24T13:36:34;29.30;78.50
5806;DHT22;2929;50.810;8.342;2023-06-24T13:39:02;29.80;73.20
5806;DHT22;2929;50.810;8.342;2023-06-24T13:41:29;30.00;75.10
5806;DHT22;2929;50.810;8.342;2023-06-24T13:43:59;29.30;74.10
5806;DHT22;2929;50.810;8.342;2023-06-24T13:46:27;28.50;78.10
5806;DHT22;2929;50.810;8.342;2023-06-24T13:48:54;28.40;76.30
5806;DHT22;2929;50.810;8.342;2023-06-24T13:51:22;28.90;84.80
5806;DHT22;2929;50.810;8.342;2023-06-24T13:53:50;29.60;77.10
5806;DHT22;2929;50.810;8.342;2023-06-24T13:56:18;29.50;76.60
5806;DHT22;2929;50.810;8.342;2023-06-24T13:58:46;29.20;77.00
5806;DHT22;2929;50.810;8.342;2023-06-24T14:01:14;28.90;76.20
5806;DHT22;2929;50.810;8.342;2023-06-24T14:03:41;28.40;78.00
5806;DHT22;2929;50.810;8.342;2023-06-24T14:06:09;28.50;78.40
5806;DHT22;2929;50.810;8.342;2023-06-24T14:08:36;29.10;75.90
5806;DHT22;2929;50.810;8.342;2023-06-24T14:11:06;28.90;76.70
5806;DHT22;2929;50.810;8.342;2023-06-24T14:13:32;28.90;77.80
5806;DHT22;2929;50.810;8.342;2023-06-24T14:16:02;28.90;79.20
5806;DHT22;2929;50.810;8.342;2023-06-24T14:18:30;28.90;76.90
5806;DHT22;2929;50.810;8.342;2023-06-24T14:20:58;29.60;79.20
5806;DHT22;2929;50.810;8.342;2023-06-24T14:23:25;29.80;72.50
5806;DHT22;2929;50.810;8.342;2023-06-24T14:25:52;29.70;74.40
5806;DHT22;2929;50.810;8.342;2023-06-24T14:28:19;29.70;70.80
5806;DHT22;2929;50.810;8.342;2023-06-24T14:30:46;29.40;71.10
5806;DHT22;2929;50.810;8.342;2023-06-24T14:33:13;29.50;74.10
5806;DHT22;2929;50.810;8.342;2023-06-24T14:35:42;30.20;71.20
5806;DHT22;2929;50.810;8.342;2023-06-24T14:38:09;30.80;72.50
5806;DHT22;2929;50.810;8.342;2023-06-24T14:40:36;31.00;71.30
5806;DHT22;2929;50.810;8.342;2023-06-24T14:43:03;31.30;71.10
5806;DHT22;2929;50.810;8.342;2023-06-24T14:45:29;31.10;68.10
5806;DHT22;2929;50.810;8.342;2023-06-24T14:47:56;30.90;67.00
5806;DHT22;2929;50.810;8.342;2023-06-24T14:50:24;31.00;68.20
5806;DHT22;2929;50.810;8.342;2023-06-24T14:52:52;31.20;68.30
5806;DHT22;2929;50.810;8.342;2023-06-24T14:55:19;30.90;66.90
5806;DHT22;2929;50.810;8.342;2023-06-24T14:57:46;31.30;67.10
5806;DHT22;2929;50.810;8.342;2023-06-24T15:00:13;31.20;66.10
5806;DHT22;2929;50.810;8.342;2023-06-24T15:02:40;31.10;70.10
5806;DHT22;2929;50.810;8.342;2023-06-24T15:05:07;30.80;68.70
5806;DHT22;2929;50.810;8.342;2023-06-24T15:07:35;30.10;67.00
5806;DHT22;2929;50.810;8.342;2023-06-24T15:10:06;29.50;68.80
5806;DHT22;2929;50.810;8.342;2023-06-24T15:12:33;29.30;72.20
5806;DHT22;2929;50.810;8.342;2023-06-24T15:15:00;29.40;69.40
5806;DHT22;2929;50.810;8.342;2023-06-24T15:17:27;29.20;73.30
5806;DHT22;2929;50.810;8.342;2023-06-24T15:19:55;29.20;72.40
5806;DHT22;2929;50.810;8.342;2023-06-24T15:22:22;29.10;71.60
5806;DHT22;2929;50.810;8.342;2023-06-24T15:24:49;29.30;74.20
5806;DHT22;2929;50.810;8.342;2023-06-24T15:27:18;29.60;71.40
5806;DHT22;2929;50.810;8.342;2023-06-24T15:29:45;30.20;71.80
5806;DHT22;2929;50.810;8.342;2023-06-24T15:32:12;29.90;73.60
5806;DHT22;2929;50.810;8.342;2023-06-24T15:34:38;29.80;71.60
5806;DHT22;2929;50.810;8.342;2023-06-24T15:37:06;29.60;70.40
5806;DHT22;2929;50.810;8.342;2023-06-24T15:39:33;29.90;73.20
5806;DHT22;2929;50.810;8.342;2023-06-24T15:42:00;30.60;72.70
5806;DHT22;2929;50.810;8.342;2023-06-24T15:44:28;30.90;71.30
5806;DHT22;2929;50.810;8.342;2023-06-24T15:46:56;30.70;68.70
5806;DHT22;2929;50.810;8.342;2023-06-24T15:49:23;30.20;69.00
5806;DHT22;2929;50.810;8.342;2023-06-24T15:51:49;29.80;71.50
5806;DHT22;2929;50.810;8.342;2023-06-24T15:54:16;29.50;73.50
5806;DHT22;2929;50.810;8.342;2023-06-24T15:56:43;29.00;77.00
5806;DHT22;2929;50.810;8.342;2023-06-24T15:59:10;28.90;76.50
5806;DHT22;2929;50.810;8.342;2023-06-24T16:01:39;29.30;74.00
5806;DHT22;2929;50.810;8.342;2023-06-24T16:04:07;28.80;74.40
5806;DHT22;2929;50.810;8.342;2023-06-24T16:06:34;28.80;76.40
5806;DHT22;2929;50.810;8.342;2023-06-24T16:09:02;28.70;76.50
5806;DHT22;2929;50.810;8.342;2023-06-24T16:11:29;28.80;75.60
5806;DHT22;2929;50.810;8.342;2023-06-24T16:13:56;28.90;75.20